createdAt,value
2018-07-12T00:02:01.555Z,6.27
2018-07-12T00:04:29.268Z,5.70
2018-07-12T00:06:56.685Z,5.67
2018-07-12T00:09:24.842Z,6.77
2018-07-12T00:11:52.219Z,5.67
2018-07-12T00:14:20.443Z,5.07
2018-07-12T00:16:47.820Z,6.10
2018-07-12T00:19:15.201Z,6.33
2018-07-12T00:21:42.649Z,5.70
2018-07-12T00:24:10.047Z,6.07
2018-07-12T00:26:38.642Z,6.53
2018-07-12T00:29:06.943Z,5.93
2018-07-12T00:31:34.321Z,6.47
2018-07-12T00:34:01.718Z,6.10
2018-07-12T00:36:29.126Z,5.57
2018-07-12T00:38:56.506Z,5.57
2018-07-12T00:41:23.909Z,6.07
2018-07-12T00:43:51.301Z,5.40
2018-07-12T00:46:19.253Z,8.03
2018-07-12T00:48:46.626Z,5.57
2018-07-12T00:51:14.017Z,6.07
2018-07-12T00:53:41.385Z,7.10
2018-07-12T00:56:09.541Z,6.40
2018-07-12T00:58:36.970Z,7.37
2018-07-12T01:01:04.337Z,6.40
2018-07-12T01:03:31.835Z,6.87
2018-07-12T01:05:59.218Z,6.93
2018-07-12T01:08:26.610Z,7.70
2018-07-12T01:10:53.994Z,8.00
2018-07-12T01:13:21.377Z,6.47
2018-07-12T01:15:48.760Z,7.93
2018-07-12T01:18:16.166Z,6.23
2018-07-12T01:20:44.535Z,7.40
2018-07-12T01:23:11.920Z,6.87
2018-07-12T01:25:39.291Z,7.53
2018-07-12T01:28:06.674Z,6.73
2018-07-12T01:30:35.658Z,8.07
2018-07-12T01:33:03.041Z,7.17
2018-07-12T01:35:31.026Z,8.00
2018-07-12T01:37:58.414Z,7.97
2018-07-12T01:40:25.800Z,7.07
2018-07-12T01:42:53.175Z,8.00
2018-07-12T01:45:20.566Z,6.63
2018-07-12T01:47:47.970Z,7.70
2018-07-12T01:50:15.446Z,7.23
2018-07-12T01:52:42.831Z,7.37
2018-07-12T01:55:10.209Z,7.90
2018-07-12T01:57:38.261Z,7.37
2018-07-12T02:00:05.670Z,7.27
2018-07-12T02:02:33.057Z,7.60
2018-07-12T02:05:00.446Z,7.50
2018-07-12T02:07:27.818Z,8.27
2018-07-12T02:09:55.198Z,8.50
2018-07-12T02:12:22.612Z,8.30
2018-07-12T02:14:49.988Z,7.93
2018-07-12T02:17:17.639Z,8.10
2018-07-12T02:19:45.019Z,8.23
2018-07-12T02:22:12.405Z,7.97
2018-07-12T02:24:39.789Z,7.17
2018-07-12T02:27:07.169Z,8.00
2018-07-12T02:29:34.541Z,8.03
2018-07-12T02:32:02.455Z,7.57
2018-07-12T02:34:29.864Z,7.80
2018-07-12T02:36:57.903Z,8.60
2018-07-12T02:39:25.285Z,7.73
2018-07-12T02:41:52.821Z,8.40
2018-07-12T02:44:20.224Z,8.27
2018-07-12T02:46:48.035Z,8.67
2018-07-12T02:49:15.962Z,9.57
2018-07-12T02:51:43.358Z,9.30
2018-07-12T02:54:10.833Z,9.03
2018-07-12T02:56:38.210Z,10.03
2018-07-12T02:59:05.776Z,10.50
2018-07-12T03:01:33.270Z,9.53
2018-07-12T03:04:00.659Z,10.37
2018-07-12T03:06:28.043Z,9.80
2018-07-12T03:08:55.422Z,9.80
2018-07-12T03:11:22.811Z,9.50
2018-07-12T03:13:50.242Z,10.53
2018-07-12T03:16:17.645Z,9.67
2018-07-12T03:18:45.286Z,9.03
2018-07-12T03:21:12.712Z,9.67
2018-07-12T03:23:40.093Z,9.47
2018-07-12T03:26:07.513Z,9.03
2018-07-12T03:28:34.885Z,9.13
2018-07-12T03:31:02.285Z,8.97
2018-07-12T03:33:29.662Z,9.33
2018-07-12T03:35:57.853Z,9.13
2018-07-12T03:38:25.289Z,8.13
2018-07-12T03:40:53.679Z,7.67
2018-07-12T03:43:21.061Z,8.47
2018-07-12T03:45:48.457Z,8.97
2018-07-12T03:48:15.826Z,8.67
2018-07-12T03:50:44.290Z,8.30
2018-07-12T03:53:12.125Z,9.50
2018-07-12T03:55:39.526Z,9.40
2018-07-12T03:58:06.924Z,8.33
2018-07-12T04:00:34.589Z,8.93
2018-07-12T04:03:01.994Z,8.53
2018-07-12T04:05:29.561Z,8.33
2018-07-12T04:07:56.942Z,8.63
2018-07-12T04:10:24.325Z,9.07
2018-07-12T04:12:51.710Z,7.97
2018-07-12T04:15:19.094Z,8.67
2018-07-12T04:17:46.485Z,8.03
2018-07-12T04:20:13.857Z,8.20
2018-07-12T04:22:41.885Z,8.10
2018-07-12T04:25:09.269Z,7.23
2018-07-12T04:27:36.653Z,8.13
2018-07-12T04:30:04.038Z,7.83
2018-07-12T04:32:31.421Z,7.33
2018-07-12T04:34:58.789Z,7.53
2018-07-12T04:37:26.173Z,7.83
2018-07-12T04:39:53.567Z,9.00
2018-07-12T04:42:21.851Z,8.20
2018-07-12T04:44:49.241Z,8.20
2018-07-12T04:47:17.534Z,8.77
2018-07-12T04:49:45.054Z,7.77
2018-07-12T04:52:12.445Z,7.40
2018-07-12T04:54:39.871Z,8.37
2018-07-12T04:57:07.262Z,8.20
2018-07-12T04:59:34.645Z,7.73
2018-07-12T05:02:02.037Z,7.80
2018-07-12T05:04:29.438Z,7.30
2018-07-12T05:06:56.833Z,7.70
2018-07-12T05:09:24.235Z,6.67
2018-07-12T05:11:51.658Z,7.07
2018-07-12T05:14:19.028Z,7.17
2018-07-12T05:16:46.427Z,6.43
2018-07-12T05:19:13.800Z,6.97
2018-07-12T05:21:41.929Z,6.10
2018-07-12T05:24:10.866Z,6.60
2018-07-12T05:26:38.240Z,6.67
2018-07-12T05:29:05.674Z,7.33
2018-07-12T05:31:33.045Z,6.47
2018-07-12T05:34:01.159Z,6.37
2018-07-12T05:36:58.798Z,6.70
2018-07-12T05:39:28.198Z,6.63
2018-07-12T05:41:56.793Z,6.80
2018-07-12T05:44:25.647Z,6.63
2018-07-12T05:46:54.231Z,6.93
2018-07-12T05:49:22.757Z,6.30
2018-07-12T05:51:51.341Z,7.80
2018-07-12T05:54:21.014Z,6.77
2018-07-12T05:56:50.075Z,8.87
2018-07-12T05:59:18.938Z,7.37
2018-07-12T06:02:00.526Z,7.30
2018-07-12T06:04:29.049Z,6.63
2018-07-12T06:06:57.984Z,7.77
2018-07-12T06:09:27.414Z,7.80
2018-07-12T06:11:56.100Z,7.37
2018-07-12T06:14:24.629Z,6.97
2018-07-12T06:16:53.152Z,7.67
2018-07-12T06:19:21.674Z,8.00
2018-07-12T06:21:50.462Z,7.33
2018-07-12T06:24:18.982Z,6.97
2018-07-12T06:26:47.545Z,7.47
2018-07-12T06:29:16.126Z,8.17
2018-07-12T06:31:44.352Z,7.27
2018-07-12T06:34:13.740Z,6.97
2018-07-12T06:36:43.767Z,6.07
2018-07-12T06:39:12.298Z,6.63
2018-07-12T06:41:40.885Z,6.93
2018-07-12T06:44:09.434Z,6.77
2018-07-12T06:46:38.090Z,6.53
2018-07-12T06:49:07.490Z,7.27
2018-07-12T06:51:36.019Z,6.67
2018-07-12T06:54:04.897Z,7.07
2018-07-12T06:56:33.422Z,6.90
2018-07-12T06:59:01.954Z,7.83
2018-07-12T07:01:31.051Z,6.80
2018-07-12T07:03:59.594Z,6.53
2018-07-12T07:06:28.270Z,6.00
2018-07-12T07:08:56.470Z,5.47
2018-07-12T07:11:25.019Z,5.63
2018-07-12T07:13:53.654Z,4.80
2018-07-12T07:16:22.243Z,5.20
2018-07-12T07:18:51.422Z,5.50
2018-07-12T07:21:19.938Z,5.40
2018-07-12T07:23:48.485Z,4.93
2018-07-12T07:26:17.028Z,4.90
2018-07-12T07:28:45.561Z,4.87
2018-07-12T07:31:14.089Z,4.40
2018-07-12T07:33:43.113Z,4.23
2018-07-12T07:36:11.785Z,4.67
2018-07-12T07:38:40.725Z,4.20
2018-07-12T07:41:09.280Z,4.47
2018-07-12T07:43:37.825Z,4.03
2018-07-12T07:46:06.828Z,4.00
2018-07-12T07:48:35.413Z,4.20
2018-07-12T07:51:04.921Z,3.80
2018-07-12T07:53:33.506Z,4.10
2018-07-12T07:56:02.631Z,3.80
2018-07-12T07:58:31.158Z,3.60
2018-07-12T08:01:00.566Z,4.50
2018-07-12T08:03:29.639Z,4.20
2018-07-12T08:05:58.173Z,4.10
2018-07-12T08:08:26.749Z,4.53
2018-07-12T08:10:55.355Z,4.40
2018-07-12T08:13:23.989Z,4.00
2018-07-12T08:15:52.522Z,4.43
2018-07-12T08:18:21.074Z,4.03
2018-07-12T08:20:49.588Z,4.00
2018-07-12T08:23:18.109Z,3.50
2018-07-12T08:25:46.651Z,4.47
2018-07-12T08:28:23.869Z,3.53
2018-07-12T08:30:52.423Z,3.67
2018-07-12T08:33:21.154Z,4.27
2018-07-12T08:35:49.918Z,4.40
2018-07-12T08:38:18.538Z,4.40
2018-07-12T08:40:48.026Z,4.00
2018-07-12T08:43:16.553Z,4.30
2018-07-12T08:45:46.102Z,3.93
2018-07-12T08:48:19.560Z,4.13
2018-07-12T08:50:51.550Z,3.90
2018-07-12T08:53:22.081Z,4.13
2018-07-12T08:55:56.384Z,4.33
2018-07-12T08:58:24.938Z,3.50
2018-07-12T09:00:53.921Z,3.93
2018-07-12T09:03:22.485Z,4.33
2018-07-12T09:05:51.113Z,3.43
2018-07-12T09:08:19.630Z,3.70
2018-07-12T09:10:49.451Z,2.90
2018-07-12T09:13:17.990Z,3.97
2018-07-12T09:15:46.569Z,3.20
2018-07-12T09:18:15.073Z,3.37
2018-07-12T09:20:43.597Z,3.33
2018-07-12T09:23:12.991Z,3.50
2018-07-12T09:25:44.305Z,2.87
2018-07-12T09:28:12.841Z,3.70
2018-07-12T09:30:46.389Z,3.23
2018-07-12T09:33:30.280Z,3.40
2018-07-12T09:36:15.066Z,3.33
2018-07-12T09:38:59.492Z,3.53
2018-07-12T09:41:38.632Z,3.73
2018-07-12T09:44:19.714Z,3.40
2018-07-12T09:46:55.763Z,3.73
2018-07-12T09:49:39.880Z,4.40
2018-07-12T09:52:14.525Z,3.83
2018-07-12T09:54:55.736Z,3.37
2018-07-12T09:57:41.353Z,3.50
2018-07-12T10:00:11.696Z,3.17
2018-07-12T10:02:47.310Z,3.20
2018-07-12T10:05:24.585Z,3.27
2018-07-12T10:08:59.318Z,2.40
2018-07-12T10:11:32.985Z,3.00
2018-07-12T10:14:06.901Z,2.60
2018-07-12T10:16:41.500Z,2.50
2018-07-12T10:19:10.046Z,2.87
2018-07-12T10:21:38.570Z,2.70
2018-07-12T10:24:07.094Z,3.03
2018-07-12T10:26:35.630Z,3.20
2018-07-12T10:29:04.690Z,2.57
2018-07-12T10:31:33.214Z,2.90
2018-07-12T10:34:01.807Z,3.03
2018-07-12T10:36:31.063Z,2.80
2018-07-12T10:38:59.589Z,2.77
2018-07-12T10:41:28.308Z,2.60
2018-07-12T10:43:57.051Z,2.43
2018-07-12T10:46:25.603Z,2.77
2018-07-12T10:48:54.950Z,2.60
2018-07-12T10:51:23.493Z,2.27
2018-07-12T10:53:52.018Z,2.20
2018-07-12T10:56:20.866Z,2.40
2018-07-12T10:58:49.385Z,2.47
2018-07-12T11:01:17.922Z,2.37
2018-07-12T11:03:46.466Z,2.13
2018-07-12T11:06:15.434Z,2.20
2018-07-12T11:08:43.973Z,2.10
2018-07-12T11:11:12.753Z,1.83
2018-07-12T11:13:55.942Z,2.27
2018-07-12T11:16:24.495Z,2.00
2018-07-12T11:18:53.027Z,2.10
2018-07-12T11:21:22.326Z,2.90
2018-07-12T11:23:50.842Z,2.40
2018-07-12T11:26:19.375Z,2.17
2018-07-12T11:28:47.969Z,2.27
2018-07-12T11:31:16.498Z,2.20
2018-07-12T11:33:45.956Z,2.07
2018-07-12T11:36:14.502Z,2.07
2018-07-12T11:38:43.954Z,2.13
2018-07-12T11:41:13.083Z,2.00
2018-07-12T11:43:41.774Z,1.90
2018-07-12T11:46:11.742Z,2.50
2018-07-12T11:48:42.793Z,1.97
2018-07-12T11:51:11.432Z,2.10
2018-07-12T11:53:41.073Z,2.27
2018-07-12T11:56:10.589Z,2.40
2018-07-12T11:58:39.146Z,2.10
2018-07-12T12:01:07.777Z,2.63
2018-07-12T12:03:36.318Z,1.60
2018-07-12T12:06:05.056Z,2.67
2018-07-12T12:08:33.582Z,2.77
2018-07-12T12:11:02.111Z,2.20
2018-07-12T12:13:30.757Z,2.63
2018-07-12T12:15:59.274Z,2.00
2018-07-12T12:18:28.080Z,2.10
2018-07-12T12:20:57.120Z,2.37
2018-07-12T12:23:25.651Z,2.10
2018-07-12T12:25:53.852Z,2.17
2018-07-12T12:28:22.393Z,2.50
2018-07-12T12:30:50.971Z,2.60
2018-07-12T12:33:19.584Z,1.97
2018-07-12T12:35:48.144Z,2.10
2018-07-12T12:38:16.766Z,2.30
2018-07-12T12:40:45.479Z,1.90
2018-07-12T12:43:14.037Z,2.60
2018-07-12T12:45:42.567Z,2.50
2018-07-12T12:48:11.097Z,2.03
2018-07-12T12:50:39.795Z,2.90
2018-07-12T12:53:08.357Z,2.37
2018-07-12T12:55:36.915Z,2.73
2018-07-12T12:58:05.459Z,2.43
2018-07-12T13:00:33.994Z,2.53
2018-07-12T13:03:02.756Z,2.20
2018-07-12T13:05:31.298Z,2.03
2018-07-12T13:08:00.067Z,2.60
2018-07-12T13:10:28.695Z,2.70
2018-07-12T13:12:57.279Z,1.93
2018-07-12T13:15:26.670Z,2.87
2018-07-12T13:17:55.207Z,2.33
2018-07-12T13:20:23.785Z,4.33
2018-07-12T13:22:52.349Z,3.50
2018-07-12T13:25:20.945Z,3.97
2018-07-12T13:27:49.490Z,3.80
2018-07-12T13:30:19.397Z,3.40
2018-07-12T13:32:47.971Z,2.33
2018-07-12T13:35:16.491Z,2.20
2018-07-12T13:37:45.022Z,2.60
2018-07-12T13:40:13.218Z,2.17
2018-07-12T13:42:41.873Z,2.10
2018-07-12T13:45:10.518Z,2.37
2018-07-12T13:47:39.057Z,2.50
2018-07-12T13:50:07.565Z,2.83
2018-07-12T13:52:36.074Z,2.07
2018-07-12T13:55:04.642Z,2.50
2018-07-12T13:57:33.195Z,2.10
2018-07-12T14:00:02.070Z,2.40
2018-07-12T14:02:30.778Z,2.60
2018-07-12T14:04:59.341Z,2.43
2018-07-12T14:07:27.926Z,2.40
2018-07-12T14:09:56.598Z,2.23
2018-07-12T14:12:25.128Z,2.10
2018-07-12T14:14:53.658Z,2.00
2018-07-12T14:17:22.191Z,2.60
2018-07-12T14:19:50.777Z,2.40
2018-07-12T14:22:19.326Z,2.47
2018-07-12T14:24:47.930Z,2.00
2018-07-12T14:27:16.567Z,2.73
2018-07-12T14:29:45.056Z,2.30
2018-07-12T14:32:13.879Z,2.73
2018-07-12T14:34:42.430Z,2.37
2018-07-12T14:37:10.977Z,2.50
2018-07-12T14:39:39.526Z,2.50
2018-07-12T14:42:08.077Z,2.20
2018-07-12T14:44:36.738Z,2.63
2018-07-12T14:47:05.340Z,2.50
2018-07-12T14:49:34.867Z,2.40
2018-07-12T14:52:03.397Z,2.10
2018-07-12T14:54:32.385Z,2.30
2018-07-12T14:57:00.949Z,2.40
2018-07-12T14:59:29.497Z,2.23
2018-07-12T15:01:58.416Z,1.73
2018-07-12T15:04:27.589Z,2.27
2018-07-12T15:06:56.741Z,2.33
2018-07-12T15:09:25.323Z,2.57
2018-07-12T15:11:53.861Z,2.77
2018-07-12T15:14:22.367Z,2.47
2018-07-12T15:16:50.971Z,2.43
2018-07-12T15:19:19.527Z,2.27
2018-07-12T15:21:48.062Z,2.67
2018-07-12T15:24:16.628Z,2.73
2018-07-12T15:26:45.153Z,2.80
2018-07-12T15:29:13.963Z,2.30
2018-07-12T15:31:42.521Z,2.63
2018-07-12T15:34:11.466Z,2.30
2018-07-12T15:36:40.065Z,2.40
2018-07-12T15:39:08.941Z,2.10
2018-07-12T15:41:38.050Z,2.97
2018-07-12T15:44:06.632Z,2.40
2018-07-12T15:46:35.351Z,2.43
2018-07-12T15:49:03.889Z,2.50
2018-07-12T15:51:32.672Z,2.80
2018-07-12T15:54:01.203Z,2.33
2018-07-12T15:56:30.199Z,2.70
2018-07-12T15:58:58.938Z,2.27
2018-07-12T16:01:27.451Z,2.57
2018-07-12T16:03:55.965Z,2.10
2018-07-12T16:06:24.165Z,2.07
2018-07-12T16:08:53.669Z,2.13
2018-07-12T16:11:22.866Z,2.40
2018-07-12T16:13:52.376Z,2.80
2018-07-12T16:16:20.901Z,2.27
2018-07-12T16:18:50.380Z,2.70
2018-07-12T16:21:18.937Z,2.90
2018-07-12T16:23:47.489Z,2.03
2018-07-12T16:26:16.043Z,2.20
2018-07-12T16:28:44.605Z,2.93
2018-07-12T16:31:13.175Z,2.73
2018-07-12T16:33:41.754Z,2.73
2018-07-12T16:36:10.682Z,2.57
2018-07-12T16:38:39.223Z,2.67
2018-07-12T16:41:07.753Z,2.30
2018-07-12T16:43:36.306Z,3.43
2018-07-12T16:46:04.932Z,2.47
2018-07-12T16:48:33.598Z,2.63
2018-07-12T16:51:02.133Z,2.67
2018-07-12T16:53:30.678Z,2.50
2018-07-12T16:55:59.975Z,2.57
2018-07-12T16:58:28.553Z,2.63
2018-07-12T17:00:57.098Z,2.70
2018-07-12T17:03:27.381Z,2.70
2018-07-12T17:06:03.114Z,3.53
2018-07-12T17:08:32.187Z,2.87
2018-07-12T17:11:00.735Z,2.90
2018-07-12T17:13:29.310Z,3.20
2018-07-12T17:15:57.850Z,2.80
2018-07-12T17:18:27.677Z,2.40
2018-07-12T17:20:56.322Z,2.33
2018-07-12T17:23:25.998Z,2.87
2018-07-12T17:25:54.614Z,2.83
2018-07-12T17:28:23.161Z,3.17
2018-07-12T17:30:51.953Z,2.60
2018-07-12T17:33:21.427Z,2.73
2018-07-12T17:35:50.062Z,2.80
2018-07-12T17:38:18.582Z,3.00
2018-07-12T17:40:48.068Z,3.57
2018-07-12T17:43:16.606Z,2.77
2018-07-12T17:45:45.525Z,2.90
2018-07-12T17:48:14.063Z,3.03
2018-07-12T17:50:42.686Z,2.80
2018-07-12T17:53:10.886Z,3.37
2018-07-12T17:55:39.420Z,3.73
2018-07-12T17:58:08.055Z,3.43
2018-07-12T18:00:36.618Z,2.97
2018-07-12T18:03:05.295Z,3.27
2018-07-12T18:05:33.848Z,3.47
2018-07-12T18:08:02.436Z,2.87
2018-07-12T18:10:30.976Z,3.30
2018-07-12T18:12:59.567Z,3.53
2018-07-12T18:15:28.118Z,3.60
2018-07-12T18:17:56.661Z,3.73
2018-07-12T18:20:25.201Z,3.10
2018-07-12T18:22:53.756Z,3.07
2018-07-12T18:25:22.308Z,3.00
2018-07-12T18:27:50.963Z,3.00
2018-07-12T18:30:19.501Z,2.43
2018-07-12T18:32:48.067Z,3.00
2018-07-12T18:35:16.673Z,2.93
2018-07-12T18:37:45.150Z,2.90
2018-07-12T18:40:13.674Z,3.10
2018-07-12T18:42:42.530Z,3.37
2018-07-12T18:45:11.085Z,3.27
2018-07-12T18:47:40.006Z,3.43
2018-07-12T18:50:09.217Z,2.77
2018-07-12T18:52:37.805Z,2.83
2018-07-12T18:55:06.980Z,2.70
2018-07-12T18:57:36.321Z,2.80
2018-07-12T19:00:06.065Z,2.60
2018-07-12T19:02:35.193Z,2.77
2018-07-12T19:05:03.425Z,2.70
2018-07-12T19:07:31.949Z,2.80
2018-07-12T19:10:01.507Z,2.37
2018-07-12T19:12:30.079Z,2.70
2018-07-12T19:14:59.495Z,3.00
2018-07-12T19:17:28.839Z,3.10
2018-07-12T19:19:59.254Z,2.80
2018-07-12T19:22:28.793Z,2.77
2018-07-12T19:24:57.321Z,3.20
2018-07-12T19:27:26.181Z,3.03
2018-07-12T19:29:54.747Z,2.63
2018-07-12T19:32:23.275Z,3.53
2018-07-12T19:34:51.903Z,2.67
2018-07-12T19:37:20.407Z,2.57
2018-07-12T19:39:48.973Z,2.87
2018-07-12T19:42:17.546Z,3.60
2018-07-12T19:44:46.075Z,2.70
2018-07-12T19:47:14.690Z,3.30
2018-07-12T19:49:43.197Z,2.80
2018-07-12T19:52:11.762Z,3.00
2018-07-12T19:54:40.410Z,3.23
2018-07-12T19:57:08.951Z,3.40
2018-07-12T19:59:37.475Z,3.17
2018-07-12T20:02:06.044Z,3.07
2018-07-12T20:04:34.596Z,2.90
2018-07-12T20:07:03.623Z,3.17
2018-07-12T20:09:32.201Z,2.80
2018-07-12T20:12:00.892Z,3.47
2018-07-12T20:14:29.494Z,2.70
2018-07-12T20:16:58.485Z,2.97
2018-07-12T20:19:27.441Z,2.50
2018-07-12T20:21:55.965Z,2.73
2018-07-12T20:24:25.470Z,2.67
2018-07-12T20:26:54.034Z,2.77
2018-07-12T20:29:22.589Z,2.53
2018-07-12T20:31:51.832Z,3.00
2018-07-12T20:34:20.369Z,2.60
2018-07-12T20:36:49.530Z,2.53
2018-07-12T20:39:18.154Z,3.23
2018-07-12T20:41:46.786Z,2.40
2018-07-12T20:44:15.355Z,2.97
2018-07-12T20:46:44.454Z,2.30
2018-07-12T20:49:13.028Z,2.73
2018-07-12T20:51:41.591Z,2.37
2018-07-12T20:54:10.121Z,2.47
2018-07-12T20:56:38.786Z,2.50
2018-07-12T20:59:07.314Z,2.60
2018-07-12T21:01:35.902Z,2.47
2018-07-12T21:04:05.050Z,2.40
2018-07-12T21:06:33.598Z,2.77
2018-07-12T21:09:02.166Z,2.40
2018-07-12T21:11:31.286Z,2.40
2018-07-12T21:14:00.215Z,2.40
2018-07-12T21:16:29.779Z,2.93
2018-07-12T21:18:58.308Z,2.53
2018-07-12T21:21:26.871Z,2.73
2018-07-12T21:23:55.385Z,2.47
2018-07-12T21:26:23.910Z,2.77
2018-07-12T21:28:52.450Z,2.60
2018-07-12T21:31:20.996Z,2.40
2018-07-12T21:33:49.549Z,2.97
2018-07-12T21:36:18.069Z,2.93
2018-07-12T21:38:46.602Z,2.40
2018-07-12T21:41:16.380Z,2.80
2018-07-12T21:43:44.989Z,2.83
2018-07-12T21:46:13.569Z,2.63
2018-07-12T21:48:42.106Z,2.87
2018-07-12T21:51:10.651Z,2.80
2018-07-12T21:53:39.177Z,2.90
2018-07-12T21:56:07.705Z,2.73
2018-07-12T21:58:37.178Z,2.40
2018-07-12T22:01:05.697Z,2.40
2018-07-12T22:03:34.242Z,2.40
2018-07-12T22:06:02.774Z,2.40
2018-07-12T22:08:31.569Z,2.30
2018-07-12T22:11:02.177Z,2.70
2018-07-12T22:13:31.557Z,2.50
2018-07-12T22:16:00.122Z,2.43
2018-07-12T22:18:28.708Z,2.40
2018-07-12T22:20:58.041Z,2.33
2018-07-12T22:23:28.369Z,2.40
2018-07-12T22:25:57.162Z,2.10
2018-07-12T22:28:25.677Z,2.93
2018-07-12T22:30:54.187Z,2.40
2018-07-12T22:33:22.749Z,2.83
2018-07-12T22:35:50.971Z,2.37
2018-07-12T22:38:19.865Z,2.47
2018-07-12T22:40:49.119Z,3.03
2018-07-12T22:43:17.330Z,3.40
2018-07-12T22:45:46.584Z,2.93
2018-07-12T22:48:15.176Z,2.70
2018-07-12T22:50:43.670Z,2.47
2018-07-12T22:53:12.663Z,2.60
2018-07-12T22:55:41.887Z,2.80
2018-07-12T22:58:10.430Z,2.20
2018-07-12T23:00:39.030Z,3.00
2018-07-12T23:03:07.602Z,2.57
2018-07-12T23:05:36.046Z,2.50
2018-07-12T23:08:04.574Z,2.83
2018-07-12T23:10:33.861Z,2.37
2018-07-12T23:13:02.402Z,3.40
2018-07-12T23:15:30.930Z,2.40
2018-07-12T23:18:00.127Z,2.53
2018-07-12T23:20:28.653Z,2.43
2018-07-12T23:22:57.178Z,2.77
2018-07-12T23:25:26.752Z,2.50
2018-07-12T23:27:55.285Z,2.80
2018-07-12T23:30:24.823Z,2.30
2018-07-12T23:32:54.518Z,2.10
2018-07-12T23:35:23.256Z,2.27
2018-07-12T23:37:51.792Z,2.17
2018-07-12T23:40:20.361Z,2.30
2018-07-12T23:42:51.169Z,2.43
2018-07-12T23:45:19.800Z,2.27
2018-07-12T23:47:48.385Z,2.63
2018-07-12T23:50:16.965Z,2.70
2018-07-12T23:52:45.482Z,3.10
2018-07-12T23:55:14.440Z,2.17
2018-07-12T23:57:43.404Z,3.27
